sensor_id;sensor_type;location;lat;lon;timestamp;P1;durP1;ratioP1;P2;durP2;ratioP2
66874;SDS011;53784;52.630;4.896;2023-04-06T00:01:35;14.77;;;7.45;;
66874;SDS011;53784;52.630;4.896;2023-04-06T00:04:00;17.30;;;8.13;;
66874;SDS011;53784;52.630;4.896;2023-04-06T00:06:26;15.57;;;6.97;;
66874;SDS011;53784;52.630;4.896;2023-04-06T00:08:51;17.45;;;8.07;;
66874;SDS011;53784;52.630;4.896;2023-04-06T00:11:17;17.30;;;8.20;;
66874;SDS011;53784;52.630;4.896;2023-04-06T00:13:42;19.23;;;8.73;;
66874;SDS011;53784;52.630;4.896;2023-04-06T00:16:07;15.65;;;7.55;;
66874;SDS011;53784;52.630;4.896;2023-04-06T00:18:32;18.42;;;8.30;;
66874;SDS011;53784;52.630;4.896;2023-04-06T00:20:58;16.52;;;7.95;;
66874;SDS011;53784;52.630;4.896;2023-04-06T00:23:23;19.00;;;8.90;;
66874;SDS011;53784;52.630;4.896;2023-04-06T00:25:48;16.17;;;8.13;;
66874;SDS011;53784;52.630;4.896;2023-04-06T00:28:13;17.00;;;8.20;;
66874;SDS011;53784;52.630;4.896;2023-04-06T00:30:39;19.08;;;8.73;;
66874;SDS011;53784;52.630;4.896;2023-04-06T00:33:04;16.65;;;7.07;;
66874;SDS011;53784;52.630;4.896;2023-04-06T00:35:30;17.17;;;7.97;;
66874;SDS011;53784;52.630;4.896;2023-04-06T00:37:55;17.52;;;8.60;;
66874;SDS011;53784;52.630;4.896;2023-04-06T00:40:20;17.85;;;8.07;;
66874;SDS011;53784;52.630;4.896;2023-04-06T00:42:46;15.83;;;7.73;;
66874;SDS011;53784;52.630;4.896;2023-04-06T00:45:11;19.13;;;9.17;;
66874;SDS011;53784;52.630;4.896;2023-04-06T00:47:36;17.83;;;8.05;;
66874;SDS011;53784;52.630;4.896;2023-04-06T00:50:01;17.58;;;7.97;;
66874;SDS011;53784;52.630;4.896;2023-04-06T00:52:27;15.20;;;7.85;;
66874;SDS011;53784;52.630;4.896;2023-04-06T00:54:52;17.42;;;8.00;;
66874;SDS011;53784;52.630;4.896;2023-04-06T00:57:17;19.00;;;8.83;;
66874;SDS011;53784;52.630;4.896;2023-04-06T00:59:43;18.23;;;8.38;;
66874;SDS011;53784;52.630;4.896;2023-04-06T01:02:08;18.63;;;8.65;;
66874;SDS011;53784;52.630;4.896;2023-04-06T01:04:33;16.85;;;8.27;;
66874;SDS011;53784;52.630;4.896;2023-04-06T01:06:59;16.33;;;7.82;;
66874;SDS011;53784;52.630;4.896;2023-04-06T01:09:24;16.20;;;8.40;;
66874;SDS011;53784;52.630;4.896;2023-04-06T01:11:50;17.48;;;8.00;;
66874;SDS011;53784;52.630;4.896;2023-04-06T01:14:15;17.73;;;8.00;;
66874;SDS011;53784;52.630;4.896;2023-04-06T01:16:40;19.08;;;8.40;;
66874;SDS011;53784;52.630;4.896;2023-04-06T01:19:09;17.15;;;8.07;;
66874;SDS011;53784;52.630;4.896;2023-04-06T01:21:34;17.08;;;8.18;;
66874;SDS011;53784;52.630;4.896;2023-04-06T01:24:00;16.92;;;7.80;;
66874;SDS011;53784;52.630;4.896;2023-04-06T01:26:25;15.13;;;7.95;;
66874;SDS011;53784;52.630;4.896;2023-04-06T01:28:51;18.05;;;7.95;;
66874;SDS011;53784;52.630;4.896;2023-04-06T01:31:16;17.33;;;8.07;;
66874;SDS011;53784;52.630;4.896;2023-04-06T01:33:42;16.38;;;7.43;;
66874;SDS011;53784;52.630;4.896;2023-04-06T01:36:07;15.63;;;7.70;;
66874;SDS011;53784;52.630;4.896;2023-04-06T01:38:32;18.00;;;7.72;;
66874;SDS011;53784;52.630;4.896;2023-04-06T01:40:57;14.13;;;7.60;;
66874;SDS011;53784;52.630;4.896;2023-04-06T01:43:23;16.38;;;7.70;;
66874;SDS011;53784;52.630;4.896;2023-04-06T01:45:48;17.33;;;7.93;;
66874;SDS011;53784;52.630;4.896;2023-04-06T01:48:13;15.30;;;7.50;;
66874;SDS011;53784;52.630;4.896;2023-04-06T01:50:39;13.63;;;6.60;;
66874;SDS011;53784;52.630;4.896;2023-04-06T01:53:04;15.70;;;7.43;;
66874;SDS011;53784;52.630;4.896;2023-04-06T01:55:29;15.05;;;7.32;;
66874;SDS011;53784;52.630;4.896;2023-04-06T01:57:54;14.10;;;6.88;;
66874;SDS011;53784;52.630;4.896;2023-04-06T02:00:20;13.00;;;7.03;;
66874;SDS011;53784;52.630;4.896;2023-04-06T02:02:45;13.55;;;7.38;;
66874;SDS011;53784;52.630;4.896;2023-04-06T02:05:10;16.10;;;7.20;;
66874;SDS011;53784;52.630;4.896;2023-04-06T02:07:35;14.10;;;6.45;;
66874;SDS011;53784;52.630;4.896;2023-04-06T02:10:01;14.83;;;7.53;;
66874;SDS011;53784;52.630;4.896;2023-04-06T02:12:27;15.00;;;7.03;;
66874;SDS011;53784;52.630;4.896;2023-04-06T02:14:52;13.50;;;7.30;;
66874;SDS011;53784;52.630;4.896;2023-04-06T02:17:17;14.50;;;6.68;;
66874;SDS011;53784;52.630;4.896;2023-04-06T02:19:42;13.17;;;6.70;;
66874;SDS011;53784;52.630;4.896;2023-04-06T02:22:08;18.10;;;7.27;;
66874;SDS011;53784;52.630;4.896;2023-04-06T02:24:34;14.13;;;6.40;;
66874;SDS011;53784;52.630;4.896;2023-04-06T02:26:59;13.85;;;6.40;;
66874;SDS011;53784;52.630;4.896;2023-04-06T02:29:25;13.68;;;7.07;;
66874;SDS011;53784;52.630;4.896;2023-04-06T02:31:50;14.32;;;6.80;;
66874;SDS011;53784;52.630;4.896;2023-04-06T02:34:15;13.17;;;6.50;;
66874;SDS011;53784;52.630;4.896;2023-04-06T02:36:43;12.93;;;6.20;;
66874;SDS011;53784;52.630;4.896;2023-04-06T02:39:08;15.40;;;6.95;;
66874;SDS011;53784;52.630;4.896;2023-04-06T02:41:33;13.83;;;6.70;;
66874;SDS011;53784;52.630;4.896;2023-04-06T02:43:59;13.55;;;6.47;;
66874;SDS011;53784;52.630;4.896;2023-04-06T02:46:24;14.57;;;6.50;;
66874;SDS011;53784;52.630;4.896;2023-04-06T02:48:49;11.77;;;6.03;;
66874;SDS011;53784;52.630;4.896;2023-04-06T02:51:15;12.90;;;5.97;;
66874;SDS011;53784;52.630;4.896;2023-04-06T02:53:40;12.82;;;6.40;;
66874;SDS011;53784;52.630;4.896;2023-04-06T02:56:05;11.80;;;5.93;;
66874;SDS011;53784;52.630;4.896;2023-04-06T02:58:31;13.27;;;6.32;;
66874;SDS011;53784;52.630;4.896;2023-04-06T03:00:56;12.68;;;6.22;;
66874;SDS011;53784;52.630;4.896;2023-04-06T03:03:21;13.27;;;6.60;;
66874;SDS011;53784;52.630;4.896;2023-04-06T03:05:46;11.25;;;6.10;;
66874;SDS011;53784;52.630;4.896;2023-04-06T03:08:12;12.10;;;6.30;;
66874;SDS011;53784;52.630;4.896;2023-04-06T03:10:37;12.70;;;6.30;;
66874;SDS011;53784;52.630;4.896;2023-04-06T03:13:02;13.10;;;6.47;;
66874;SDS011;53784;52.630;4.896;2023-04-06T03:15:28;14.68;;;6.60;;
66874;SDS011;53784;52.630;4.896;2023-04-06T03:17:53;13.80;;;6.23;;
66874;SDS011;53784;52.630;4.896;2023-04-06T03:20:18;14.77;;;6.50;;
66874;SDS011;53784;52.630;4.896;2023-04-06T03:22:43;12.83;;;6.43;;
66874;SDS011;53784;52.630;4.896;2023-04-06T03:25:08;11.98;;;6.53;;
66874;SDS011;53784;52.630;4.896;2023-04-06T03:27:34;15.37;;;6.57;;
66874;SDS011;53784;52.630;4.896;2023-04-06T03:29:59;11.82;;;5.70;;
66874;SDS011;53784;52.630;4.896;2023-04-06T03:32:25;13.57;;;6.53;;
66874;SDS011;53784;52.630;4.896;2023-04-06T03:34:50;10.87;;;6.07;;
66874;SDS011;53784;52.630;4.896;2023-04-06T03:37:15;12.90;;;6.53;;
66874;SDS011;53784;52.630;4.896;2023-04-06T03:39:40;12.80;;;6.20;;
66874;SDS011;53784;52.630;4.896;2023-04-06T03:42:05;13.63;;;6.40;;
66874;SDS011;53784;52.630;4.896;2023-04-06T03:44:31;12.70;;;5.87;;
66874;SDS011;53784;52.630;4.896;2023-04-06T03:46:56;13.05;;;5.97;;
66874;SDS011;53784;52.630;4.896;2023-04-06T03:49:21;11.35;;;6.20;;
66874;SDS011;53784;52.630;4.896;2023-04-06T03:51:47;12.80;;;6.00;;
66874;SDS011;53784;52.630;4.896;2023-04-06T03:54:12;13.43;;;6.18;;
66874;SDS011;53784;52.630;4.896;2023-04-06T03:56:37;13.30;;;6.57;;
66874;SDS011;53784;52.630;4.896;2023-04-06T03:59:02;12.47;;;5.67;;
66874;SDS011;53784;52.630;4.896;2023-04-06T04:01:28;13.10;;;6.70;;
66874;SDS011;53784;52.630;4.896;2023-04-06T04:03:53;11.60;;;6.40;;
66874;SDS011;53784;52.630;4.896;2023-04-06T04:06:18;11.57;;;5.90;;
66874;SDS011;53784;52.630;4.896;2023-04-06T04:08:43;12.25;;;6.22;;
66874;SDS011;53784;52.630;4.896;2023-04-06T04:11:08;12.77;;;6.40;;
66874;SDS011;53784;52.630;4.896;2023-04-06T04:13:34;13.60;;;6.93;;
66874;SDS011;53784;52.630;4.896;2023-04-06T04:15:59;12.33;;;6.73;;
66874;SDS011;53784;52.630;4.896;2023-04-06T04:18:24;13.30;;;6.80;;
66874;SDS011;53784;52.630;4.896;2023-04-06T04:20:50;14.10;;;7.25;;
66874;SDS011;53784;52.630;4.896;2023-04-06T04:23:15;14.00;;;7.03;;
66874;SDS011;53784;52.630;4.896;2023-04-06T04:25:40;13.60;;;6.55;;
66874;SDS011;53784;52.630;4.896;2023-04-06T04:28:05;13.85;;;7.25;;
66874;SDS011;53784;52.630;4.896;2023-04-06T04:30:30;13.82;;;7.22;;
66874;SDS011;53784;52.630;4.896;2023-04-06T04:32:56;14.03;;;6.83;;
66874;SDS011;53784;52.630;4.896;2023-04-06T04:35:21;15.50;;;7.53;;
66874;SDS011;53784;52.630;4.896;2023-04-06T04:37:46;14.95;;;7.10;;
66874;SDS011;53784;52.630;4.896;2023-04-06T04:40:11;14.82;;;6.90;;
66874;SDS011;53784;52.630;4.896;2023-04-06T04:42:37;13.05;;;6.85;;
66874;SDS011;53784;52.630;4.896;2023-04-06T04:45:02;14.93;;;7.40;;
66874;SDS011;53784;52.630;4.896;2023-04-06T04:47:27;16.73;;;7.88;;
66874;SDS011;53784;52.630;4.896;2023-04-06T04:49:52;15.70;;;7.30;;
66874;SDS011;53784;52.630;4.896;2023-04-06T04:52:17;15.43;;;6.97;;
66874;SDS011;53784;52.630;4.896;2023-04-06T04:54:43;14.87;;;7.30;;
66874;SDS011;53784;52.630;4.896;2023-04-06T04:57:08;14.87;;;7.23;;
66874;SDS011;53784;52.630;4.896;2023-04-06T04:59:34;16.00;;;7.15;;
66874;SDS011;53784;52.630;4.896;2023-04-06T05:01:59;13.27;;;6.53;;
66874;SDS011;53784;52.630;4.896;2023-04-06T05:04:24;16.58;;;6.97;;
66874;SDS011;53784;52.630;4.896;2023-04-06T05:06:49;14.60;;;7.05;;
66874;SDS011;53784;52.630;4.896;2023-04-06T05:09:14;14.60;;;7.57;;
66874;SDS011;53784;52.630;4.896;2023-04-06T05:11:40;15.27;;;7.30;;
66874;SDS011;53784;52.630;4.896;2023-04-06T05:14:06;15.20;;;7.60;;
66874;SDS011;53784;52.630;4.896;2023-04-06T05:16:32;14.63;;;7.47;;
66874;SDS011;53784;52.630;4.896;2023-04-06T05:18:57;16.80;;;7.90;;
66874;SDS011;53784;52.630;4.896;2023-04-06T05:21:23;14.07;;;7.13;;
66874;SDS011;53784;52.630;4.896;2023-04-06T05:23:48;15.33;;;7.67;;
66874;SDS011;53784;52.630;4.896;2023-04-06T05:26:13;16.27;;;8.13;;
66874;SDS011;53784;52.630;4.896;2023-04-06T05:28:38;16.10;;;7.83;;
66874;SDS011;53784;52.630;4.896;2023-04-06T05:31:03;16.00;;;8.27;;
66874;SDS011;53784;52.630;4.896;2023-04-06T05:33:28;16.57;;;8.13;;
66874;SDS011;53784;52.630;4.896;2023-04-06T05:35:54;15.35;;;7.85;;
66874;SDS011;53784;52.630;4.896;2023-04-06T05:38:19;16.57;;;7.37;;
66874;SDS011;53784;52.630;4.896;2023-04-06T05:40:44;15.90;;;7.95;;
66874;SDS011;53784;52.630;4.896;2023-04-06T05:43:10;14.68;;;8.02;;
66874;SDS011;53784;52.630;4.896;2023-04-06T05:45:35;15.65;;;7.88;;
66874;SDS011;53784;52.630;4.896;2023-04-06T05:48:01;17.40;;;7.80;;
66874;SDS011;53784;52.630;4.896;2023-04-06T05:50:26;17.27;;;8.10;;
66874;SDS011;53784;52.630;4.896;2023-04-06T05:52:52;16.67;;;7.93;;
66874;SDS011;53784;52.630;4.896;2023-04-06T05:55:17;17.83;;;8.20;;
66874;SDS011;53784;52.630;4.896;2023-04-06T05:57:42;18.80;;;8.27;;
66874;SDS011;53784;52.630;4.896;2023-04-06T06:00:07;18.00;;;8.25;;
66874;SDS011;53784;52.630;4.896;2023-04-06T06:02:34;17.98;;;8.48;;
66874;SDS011;53784;52.630;4.896;2023-04-06T06:04:59;17.98;;;8.20;;
66874;SDS011;53784;52.630;4.896;2023-04-06T06:07:25;18.67;;;8.60;;
66874;SDS011;53784;52.630;4.896;2023-04-06T06:09:50;18.05;;;8.52;;
66874;SDS011;53784;52.630;4.896;2023-04-06T06:12:15;19.07;;;8.33;;
66874;SDS011;53784;52.630;4.896;2023-04-06T06:14:40;18.80;;;8.70;;
66874;SDS011;53784;52.630;4.896;2023-04-06T06:17:05;18.13;;;7.38;;
66874;SDS011;53784;52.630;4.896;2023-04-06T06:19:31;17.03;;;8.10;;
66874;SDS011;53784;52.630;4.896;2023-04-06T06:21:56;17.97;;;8.40;;
66874;SDS011;53784;52.630;4.896;2023-04-06T06:24:21;18.17;;;8.23;;
66874;SDS011;53784;52.630;4.896;2023-04-06T06:26:47;19.45;;;9.63;;
66874;SDS011;53784;52.630;4.896;2023-04-06T06:29:13;19.25;;;8.77;;
66874;SDS011;53784;52.630;4.896;2023-04-06T06:31:39;18.92;;;9.00;;
66874;SDS011;53784;52.630;4.896;2023-04-06T06:34:04;19.83;;;9.57;;
66874;SDS011;53784;52.630;4.896;2023-04-06T06:36:30;16.98;;;8.93;;
66874;SDS011;53784;52.630;4.896;2023-04-06T06:38:56;17.35;;;8.80;;
66874;SDS011;53784;52.630;4.896;2023-04-06T06:41:22;18.27;;;8.73;;
66874;SDS011;53784;52.630;4.896;2023-04-06T06:43:47;19.10;;;8.88;;
66874;SDS011;53784;52.630;4.896;2023-04-06T06:46:12;19.57;;;9.90;;
66874;SDS011;53784;52.630;4.896;2023-04-06T06:48:37;17.38;;;9.15;;
66874;SDS011;53784;52.630;4.896;2023-04-06T06:51:02;18.15;;;9.50;;
66874;SDS011;53784;52.630;4.896;2023-04-06T06:53:28;17.55;;;9.38;;
66874;SDS011;53784;52.630;4.896;2023-04-06T06:55:53;18.27;;;10.15;;
66874;SDS011;53784;52.630;4.896;2023-04-06T06:58:18;21.50;;;9.97;;
66874;SDS011;53784;52.630;4.896;2023-04-06T07:00:45;20.35;;;9.75;;
66874;SDS011;53784;52.630;4.896;2023-04-06T07:03:10;19.55;;;10.00;;
66874;SDS011;53784;52.630;4.896;2023-04-06T07:05:35;19.80;;;10.00;;
66874;SDS011;53784;52.630;4.896;2023-04-06T07:08:00;25.00;;;10.00;;
66874;SDS011;53784;52.630;4.896;2023-04-06T07:10:25;20.63;;;10.25;;
66874;SDS011;53784;52.630;4.896;2023-04-06T07:12:51;23.30;;;10.38;;
66874;SDS011;53784;52.630;4.896;2023-04-06T07:15:16;21.75;;;10.40;;
66874;SDS011;53784;52.630;4.896;2023-04-06T07:17:42;22.33;;;10.45;;
66874;SDS011;53784;52.630;4.896;2023-04-06T07:20:10;20.00;;;10.55;;
66874;SDS011;53784;52.630;4.896;2023-04-06T07:22:35;20.25;;;10.10;;
66874;SDS011;53784;52.630;4.896;2023-04-06T07:25:00;21.38;;;10.30;;
66874;SDS011;53784;52.630;4.896;2023-04-06T07:27:25;23.15;;;11.30;;
66874;SDS011;53784;52.630;4.896;2023-04-06T07:29:51;21.20;;;10.25;;
66874;SDS011;53784;52.630;4.896;2023-04-06T07:32:16;22.53;;;10.87;;
66874;SDS011;53784;52.630;4.896;2023-04-06T07:34:41;22.03;;;11.33;;
66874;SDS011;53784;52.630;4.896;2023-04-06T07:37:06;21.23;;;11.00;;
66874;SDS011;53784;52.630;4.896;2023-04-06T07:39:31;23.27;;;11.73;;
66874;SDS011;53784;52.630;4.896;2023-04-06T07:41:56;25.63;;;12.20;;
66874;SDS011;53784;52.630;4.896;2023-04-06T07:44:22;27.00;;;12.00;;
66874;SDS011;53784;52.630;4.896;2023-04-06T07:46:47;24.58;;;11.40;;
66874;SDS011;53784;52.630;4.896;2023-04-06T07:49:12;23.97;;;12.23;;
66874;SDS011;53784;52.630;4.896;2023-04-06T07:51:38;23.58;;;12.15;;
66874;SDS011;53784;52.630;4.896;2023-04-06T07:54:03;27.35;;;12.43;;
66874;SDS011;53784;52.630;4.896;2023-04-06T07:56:28;25.63;;;12.07;;
66874;SDS011;53784;52.630;4.896;2023-04-06T07:58:53;26.23;;;12.70;;
66874;SDS011;53784;52.630;4.896;2023-04-06T08:01:21;27.13;;;13.18;;
66874;SDS011;53784;52.630;4.896;2023-04-06T08:03:46;25.25;;;12.25;;
66874;SDS011;53784;52.630;4.896;2023-04-06T08:06:11;24.27;;;13.10;;
66874;SDS011;53784;52.630;4.896;2023-04-06T08:08:37;25.40;;;11.90;;
66874;SDS011;53784;52.630;4.896;2023-04-06T08:11:02;25.07;;;12.73;;
66874;SDS011;53784;52.630;4.896;2023-04-06T08:13:27;29.88;;;12.88;;
66874;SDS011;53784;52.630;4.896;2023-04-06T08:15:53;23.95;;;11.35;;
66874;SDS011;53784;52.630;4.896;2023-04-06T08:18:18;26.08;;;12.50;;
66874;SDS011;53784;52.630;4.896;2023-04-06T08:20:43;26.33;;;13.20;;
66874;SDS011;53784;52.630;4.896;2023-04-06T08:23:08;24.17;;;12.33;;
66874;SDS011;53784;52.630;4.896;2023-04-06T08:25:35;25.33;;;13.32;;
66874;SDS011;53784;52.630;4.896;2023-04-06T08:28:00;23.60;;;12.57;;
66874;SDS011;53784;52.630;4.896;2023-04-06T08:30:25;23.30;;;12.00;;
66874;SDS011;53784;52.630;4.896;2023-04-06T08:32:51;25.83;;;13.32;;
66874;SDS011;53784;52.630;4.896;2023-04-06T08:35:16;25.00;;;11.83;;
66874;SDS011;53784;52.630;4.896;2023-04-06T08:37:42;25.50;;;12.13;;
66874;SDS011;53784;52.630;4.896;2023-04-06T08:40:07;29.00;;;13.32;;
66874;SDS011;53784;52.630;4.896;2023-04-06T08:42:33;27.10;;;13.55;;
66874;SDS011;53784;52.630;4.896;2023-04-06T08:44:58;24.02;;;12.38;;
66874;SDS011;53784;52.630;4.896;2023-04-06T08:47:24;24.70;;;13.50;;
66874;SDS011;53784;52.630;4.896;2023-04-06T08:49:49;25.38;;;12.90;;
66874;SDS011;53784;52.630;4.896;2023-04-06T08:52:16;25.65;;;12.95;;
66874;SDS011;53784;52.630;4.896;2023-04-06T08:54:42;24.55;;;13.02;;
66874;SDS011;53784;52.630;4.896;2023-04-06T08:57:08;22.20;;;10.10;;
66874;SDS011;53784;52.630;4.896;2023-04-06T08:59:33;22.52;;;12.20;;
66874;SDS011;53784;52.630;4.896;2023-04-06T09:01:59;24.83;;;13.13;;
66874;SDS011;53784;52.630;4.896;2023-04-06T09:04:26;24.65;;;13.50;;
66874;SDS011;53784;52.630;4.896;2023-04-06T09:06:51;23.70;;;12.77;;
66874;SDS011;53784;52.630;4.896;2023-04-06T09:09:17;27.58;;;13.05;;
66874;SDS011;53784;52.630;4.896;2023-04-06T09:11:46;21.25;;;11.00;;
66874;SDS011;53784;52.630;4.896;2023-04-06T09:14:11;25.42;;;13.18;;
66874;SDS011;53784;52.630;4.896;2023-04-06T09:16:40;29.10;;;14.15;;
66874;SDS011;53784;52.630;4.896;2023-04-06T09:19:06;21.55;;;11.52;;
66874;SDS011;53784;52.630;4.896;2023-04-06T09:21:32;25.00;;;13.77;;
66874;SDS011;53784;52.630;4.896;2023-04-06T09:24:01;25.30;;;13.60;;
66874;SDS011;53784;52.630;4.896;2023-04-06T09:26:26;24.63;;;12.07;;
66874;SDS011;53784;52.630;4.896;2023-04-06T09:28:55;24.02;;;13.00;;
66874;SDS011;53784;52.630;4.896;2023-04-06T09:31:22;24.40;;;13.77;;
66874;SDS011;53784;52.630;4.896;2023-04-06T09:33:47;24.77;;;13.32;;
66874;SDS011;53784;52.630;4.896;2023-04-06T09:36:13;27.30;;;14.53;;
66874;SDS011;53784;52.630;4.896;2023-04-06T09:38:56;28.02;;;14.18;;
66874;SDS011;53784;52.630;4.896;2023-04-06T09:41:25;28.52;;;14.23;;
66874;SDS011;53784;52.630;4.896;2023-04-06T09:43:51;26.38;;;14.73;;
66874;SDS011;53784;52.630;4.896;2023-04-06T09:46:17;25.67;;;13.07;;
66874;SDS011;53784;52.630;4.896;2023-04-06T09:48:43;23.75;;;13.50;;
66874;SDS011;53784;52.630;4.896;2023-04-06T09:51:08;25.98;;;13.05;;
66874;SDS011;53784;52.630;4.896;2023-04-06T09:53:35;26.33;;;13.60;;
66874;SDS011;53784;52.630;4.896;2023-04-06T09:56:03;23.35;;;13.18;;
66874;SDS011;53784;52.630;4.896;2023-04-06T09:58:28;24.08;;;13.15;;
66874;SDS011;53784;52.630;4.896;2023-04-06T10:01:00;22.08;;;12.45;;
66874;SDS011;53784;52.630;4.896;2023-04-06T10:05:55;22.60;;;12.48;;
66874;SDS011;53784;52.630;4.896;2023-04-06T10:08:24;20.13;;;11.48;;
66874;SDS011;53784;52.630;4.896;2023-04-06T10:10:50;21.75;;;11.95;;
66874;SDS011;53784;52.630;4.896;2023-04-06T10:13:15;19.80;;;11.00;;
66874;SDS011;53784;52.630;4.896;2023-04-06T10:15:41;20.50;;;10.85;;
66874;SDS011;53784;52.630;4.896;2023-04-06T10:18:07;23.33;;;11.50;;
66874;SDS011;53784;52.630;4.896;2023-04-06T10:20:51;22.50;;;12.60;;
66874;SDS011;53784;52.630;4.896;2023-04-06T10:28:15;24.92;;;12.73;;
66874;SDS011;53784;52.630;4.896;2023-04-06T10:30:43;22.45;;;11.85;;
66874;SDS011;53784;52.630;4.896;2023-04-06T10:33:15;25.48;;;12.75;;
66874;SDS011;53784;52.630;4.896;2023-04-06T10:35:40;24.88;;;13.57;;
66874;SDS011;53784;52.630;4.896;2023-04-06T10:38:06;23.50;;;13.07;;
66874;SDS011;53784;52.630;4.896;2023-04-06T10:40:32;19.40;;;10.63;;
66874;SDS011;53784;52.630;4.896;2023-04-06T10:45:34;21.60;;;11.07;;
66874;SDS011;53784;52.630;4.896;2023-04-06T10:48:00;20.30;;;11.02;;
66874;SDS011;53784;52.630;4.896;2023-04-06T10:50:25;20.40;;;11.20;;
66874;SDS011;53784;52.630;4.896;2023-04-06T10:53:00;20.70;;;10.95;;
66874;SDS011;53784;52.630;4.896;2023-04-06T10:55:26;20.17;;;10.85;;
66874;SDS011;53784;52.630;4.896;2023-04-06T10:57:52;22.08;;;11.73;;
66874;SDS011;53784;52.630;4.896;2023-04-06T11:00:18;20.20;;;11.00;;
66874;SDS011;53784;52.630;4.896;2023-04-06T11:02:44;20.55;;;8.85;;
66874;SDS011;53784;52.630;4.896;2023-04-06T11:05:11;21.23;;;11.90;;
66874;SDS011;53784;52.630;4.896;2023-04-06T11:07:36;20.40;;;10.73;;
66874;SDS011;53784;52.630;4.896;2023-04-06T11:10:01;19.00;;;10.30;;
66874;SDS011;53784;52.630;4.896;2023-04-06T11:12:27;16.90;;;9.27;;
66874;SDS011;53784;52.630;4.896;2023-04-06T11:14:56;20.83;;;9.90;;
66874;SDS011;53784;52.630;4.896;2023-04-06T11:17:26;23.95;;;9.70;;
66874;SDS011;53784;52.630;4.896;2023-04-06T11:19:51;17.75;;;8.57;;
66874;SDS011;53784;52.630;4.896;2023-04-06T11:22:17;20.13;;;9.93;;
66874;SDS011;53784;52.630;4.896;2023-04-06T11:24:42;19.33;;;10.07;;
66874;SDS011;53784;52.630;4.896;2023-04-06T11:27:07;16.63;;;9.27;;
66874;SDS011;53784;52.630;4.896;2023-04-06T11:29:32;19.30;;;9.25;;
66874;SDS011;53784;52.630;4.896;2023-04-06T11:32:04;18.13;;;9.10;;
66874;SDS011;53784;52.630;4.896;2023-04-06T11:34:32;19.45;;;9.88;;
66874;SDS011;53784;52.630;4.896;2023-04-06T11:36:58;18.60;;;8.23;;
66874;SDS011;53784;52.630;4.896;2023-04-06T11:39:24;15.40;;;7.82;;
66874;SDS011;53784;52.630;4.896;2023-04-06T11:41:50;19.00;;;8.90;;
66874;SDS011;53784;52.630;4.896;2023-04-06T11:44:26;16.80;;;8.90;;
66874;SDS011;53784;52.630;4.896;2023-04-06T11:46:52;18.08;;;8.73;;
66874;SDS011;53784;52.630;4.896;2023-04-06T11:49:18;13.40;;;7.03;;
66874;SDS011;53784;52.630;4.896;2023-04-06T11:51:43;16.50;;;8.27;;
66874;SDS011;53784;52.630;4.896;2023-04-06T11:54:08;18.77;;;10.07;;
66874;SDS011;53784;52.630;4.896;2023-04-06T11:56:33;14.43;;;7.57;;
66874;SDS011;53784;52.630;4.896;2023-04-06T11:58:58;15.80;;;8.03;;
66874;SDS011;53784;52.630;4.896;2023-04-06T12:01:27;9.75;;;5.05;;
66874;SDS011;53784;52.630;4.896;2023-04-06T12:03:52;14.63;;;7.68;;
66874;SDS011;53784;52.630;4.896;2023-04-06T12:06:18;15.43;;;8.02;;
66874;SDS011;53784;52.630;4.896;2023-04-06T12:08:43;14.48;;;8.27;;
66874;SDS011;53784;52.630;4.896;2023-04-06T12:11:09;12.60;;;6.65;;
66874;SDS011;53784;52.630;4.896;2023-04-06T12:13:35;10.65;;;6.10;;
66874;SDS011;53784;52.630;4.896;2023-04-06T12:16:00;13.93;;;6.80;;
66874;SDS011;53784;52.630;4.896;2023-04-06T12:18:25;12.93;;;7.10;;
66874;SDS011;53784;52.630;4.896;2023-04-06T12:20:51;12.37;;;6.87;;
66874;SDS011;53784;52.630;4.896;2023-04-06T12:23:16;11.55;;;6.05;;
66874;SDS011;53784;52.630;4.896;2023-04-06T12:25:41;10.07;;;5.87;;
66874;SDS011;53784;52.630;4.896;2023-04-06T12:28:07;11.80;;;6.35;;
66874;SDS011;53784;52.630;4.896;2023-04-06T12:30:34;9.25;;;4.63;;
66874;SDS011;53784;52.630;4.896;2023-04-06T12:33:00;9.07;;;4.47;;
66874;SDS011;53784;52.630;4.896;2023-04-06T12:35:25;9.88;;;5.38;;
66874;SDS011;53784;52.630;4.896;2023-04-06T12:37:50;9.23;;;5.40;;
66874;SDS011;53784;52.630;4.896;2023-04-06T12:40:16;9.43;;;4.65;;
66874;SDS011;53784;52.630;4.896;2023-04-06T12:42:41;10.98;;;5.95;;
66874;SDS011;53784;52.630;4.896;2023-04-06T12:45:07;9.05;;;5.35;;
66874;SDS011;53784;52.630;4.896;2023-04-06T12:47:32;7.18;;;4.18;;
66874;SDS011;53784;52.630;4.896;2023-04-06T12:49:57;8.90;;;5.17;;
66874;SDS011;53784;52.630;4.896;2023-04-06T12:52:22;10.07;;;5.90;;
66874;SDS011;53784;52.630;4.896;2023-04-06T12:54:48;11.95;;;5.57;;
66874;SDS011;53784;52.630;4.896;2023-04-06T12:57:13;9.33;;;5.53;;
66874;SDS011;53784;52.630;4.896;2023-04-06T12:59:39;11.30;;;5.55;;
66874;SDS011;53784;52.630;4.896;2023-04-06T13:02:09;8.70;;;4.68;;
66874;SDS011;53784;52.630;4.896;2023-04-06T13:04:34;11.23;;;5.15;;
66874;SDS011;53784;52.630;4.896;2023-04-06T13:06:59;6.33;;;3.57;;
66874;SDS011;53784;52.630;4.896;2023-04-06T13:09:24;9.38;;;5.13;;
66874;SDS011;53784;52.630;4.896;2023-04-06T13:11:50;10.55;;;6.25;;
66874;SDS011;53784;52.630;4.896;2023-04-06T13:14:15;9.93;;;5.43;;
66874;SDS011;53784;52.630;4.896;2023-04-06T13:16:41;9.85;;;5.60;;
66874;SDS011;53784;52.630;4.896;2023-04-06T13:19:06;10.73;;;5.25;;
66874;SDS011;53784;52.630;4.896;2023-04-06T13:21:31;9.27;;;4.50;;
66874;SDS011;53784;52.630;4.896;2023-04-06T13:23:57;9.23;;;5.53;;
66874;SDS011;53784;52.630;4.896;2023-04-06T13:26:22;9.17;;;5.30;;
66874;SDS011;53784;52.630;4.896;2023-04-06T13:28:47;8.77;;;4.57;;
66874;SDS011;53784;52.630;4.896;2023-04-06T13:31:12;8.80;;;5.05;;
66874;SDS011;53784;52.630;4.896;2023-04-06T13:33:38;9.48;;;4.47;;
66874;SDS011;53784;52.630;4.896;2023-04-06T13:36:04;10.07;;;4.88;;
66874;SDS011;53784;52.630;4.896;2023-04-06T13:38:30;11.07;;;4.93;;
66874;SDS011;53784;52.630;4.896;2023-04-06T13:40:56;10.20;;;5.75;;
66874;SDS011;53784;52.630;4.896;2023-04-06T13:43:21;8.98;;;4.78;;
66874;SDS011;53784;52.630;4.896;2023-04-06T13:45:50;11.38;;;6.13;;
66874;SDS011;53784;52.630;4.896;2023-04-06T13:48:16;10.77;;;5.50;;
66874;SDS011;53784;52.630;4.896;2023-04-06T13:50:41;9.55;;;5.35;;
66874;SDS011;53784;52.630;4.896;2023-04-06T13:53:06;11.07;;;6.35;;
66874;SDS011;53784;52.630;4.896;2023-04-06T13:55:32;8.50;;;4.40;;
66874;SDS011;53784;52.630;4.896;2023-04-06T13:57:57;9.45;;;5.30;;
66874;SDS011;53784;52.630;4.896;2023-04-06T14:00:22;10.43;;;5.83;;
66874;SDS011;53784;52.630;4.896;2023-04-06T14:02:48;10.65;;;5.72;;
66874;SDS011;53784;52.630;4.896;2023-04-06T14:05:13;13.38;;;6.85;;
66874;SDS011;53784;52.630;4.896;2023-04-06T14:07:39;16.63;;;6.68;;
66874;SDS011;53784;52.630;4.896;2023-04-06T14:10:05;10.30;;;5.40;;
66874;SDS011;53784;52.630;4.896;2023-04-06T14:12:31;10.38;;;5.43;;
66874;SDS011;53784;52.630;4.896;2023-04-06T14:14:56;10.85;;;5.53;;
66874;SDS011;53784;52.630;4.896;2023-04-06T14:17:21;11.43;;;5.82;;
66874;SDS011;53784;52.630;4.896;2023-04-06T14:19:47;13.90;;;6.70;;
66874;SDS011;53784;52.630;4.896;2023-04-06T14:22:12;11.85;;;6.47;;
66874;SDS011;53784;52.630;4.896;2023-04-06T14:24:38;10.23;;;5.78;;
66874;SDS011;53784;52.630;4.896;2023-04-06T14:27:03;12.70;;;7.10;;
66874;SDS011;53784;52.630;4.896;2023-04-06T14:29:28;14.63;;;6.95;;
66874;SDS011;53784;52.630;4.896;2023-04-06T14:31:54;11.50;;;5.75;;